sensor_id;sensor_type;location;lat;lon;timestamp;temperature;humidity
12276;DHT22;6200;48.144;11.424;2022-12-18T00:01:12;-2.30;99.90
12276;DHT22;6200;48.144;11.424;2022-12-18T00:03:38;-2.40;99.90
12276;DHT22;6200;48.144;11.424;2022-12-18T00:06:04;-2.40;99.90
12276;DHT22;6200;48.144;11.424;2022-12-18T00:08:30;-2.40;99.90
12276;DHT22;6200;48.144;11.424;2022-12-18T00:10:55;-2.40;99.90
12276;DHT22;6200;48.144;11.424;2022-12-18T00:13:28;-1.10;99.90
12276;DHT22;6200;48.144;11.424;2022-12-18T00:15:53;-2.40;99.90
12276;DHT22;6200;48.144;11.424;2022-12-18T00:18:19;-2.40;99.90
12276;DHT22;6200;48.144;11.424;2022-12-18T00:20:44;-2.50;99.90
12276;DHT22;6200;48.144;11.424;2022-12-18T00:23:10;-2.40;99.90
12276;DHT22;6200;48.144;11.424;2022-12-18T00:25:36;-2.50;99.90
12276;DHT22;6200;48.144;11.424;2022-12-18T00:28:03;-2.50;99.90
12276;DHT22;6200;48.144;11.424;2022-12-18T00:30:29;-2.50;99.90
12276;DHT22;6200;48.144;11.424;2022-12-18T00:32:55;-2.50;99.90
12276;DHT22;6200;48.144;11.424;2022-12-18T00:35:20;-2.60;99.90
12276;DHT22;6200;48.144;11.424;2022-12-18T00:37:46;-2.60;99.90
12276;DHT22;6200;48.144;11.424;2022-12-18T00:40:12;-2.50;99.90
12276;DHT22;6200;48.144;11.424;2022-12-18T00:42:37;-2.60;99.90
12276;DHT22;6200;48.144;11.424;2022-12-18T00:45:25;-2.60;99.90
12276;DHT22;6200;48.144;11.424;2022-12-18T00:47:51;-2.60;99.90
12276;DHT22;6200;48.144;11.424;2022-12-18T00:50:16;-2.60;99.90
12276;DHT22;6200;48.144;11.424;2022-12-18T00:52:42;-2.60;99.90
12276;DHT22;6200;48.144;11.424;2022-12-18T00:55:08;-2.60;99.90
12276;DHT22;6200;48.144;11.424;2022-12-18T00:57:34;-2.60;99.90
12276;DHT22;6200;48.144;11.424;2022-12-18T00:59:59;-2.60;99.90
12276;DHT22;6200;48.144;11.424;2022-12-18T01:02:25;-2.60;99.90
12276;DHT22;6200;48.144;11.424;2022-12-18T01:04:50;-2.60;99.90
12276;DHT22;6200;48.144;11.424;2022-12-18T01:07:16;-2.60;99.90
12276;DHT22;6200;48.144;11.424;2022-12-18T01:09:41;-2.60;99.90
12276;DHT22;6200;48.144;11.424;2022-12-18T01:12:07;-2.60;99.90
12276;DHT22;6200;48.144;11.424;2022-12-18T01:14:32;-2.60;99.90
12276;DHT22;6200;48.144;11.424;2022-12-18T01:16:58;-2.60;99.90
12276;DHT22;6200;48.144;11.424;2022-12-18T01:19:23;-2.50;99.90
12276;DHT22;6200;48.144;11.424;2022-12-18T01:21:49;-2.50;99.90
12276;DHT22;6200;48.144;11.424;2022-12-18T01:24:15;-2.50;99.90
12276;DHT22;6200;48.144;11.424;2022-12-18T01:26:40;-2.50;99.90
12276;DHT22;6200;48.144;11.424;2022-12-18T01:29:06;-2.50;99.90
12276;DHT22;6200;48.144;11.424;2022-12-18T01:31:33;-2.50;99.90
12276;DHT22;6200;48.144;11.424;2022-12-18T01:34:00;-2.50;99.90
12276;DHT22;6200;48.144;11.424;2022-12-18T01:36:28;-2.50;99.90
12276;DHT22;6200;48.144;11.424;2022-12-18T01:38:55;-2.50;99.90
12276;DHT22;6200;48.144;11.424;2022-12-18T01:41:26;-2.50;99.90
12276;DHT22;6200;48.144;11.424;2022-12-18T01:47:20;-2.50;99.90
12276;DHT22;6200;48.144;11.424;2022-12-18T01:49:46;-2.60;99.90
12276;DHT22;6200;48.144;11.424;2022-12-18T01:52:13;-2.60;99.90
12276;DHT22;6200;48.144;11.424;2022-12-18T01:54:39;-2.60;99.90
12276;DHT22;6200;48.144;11.424;2022-12-18T01:57:04;-2.60;99.90
12276;DHT22;6200;48.144;11.424;2022-12-18T01:59:31;-2.60;99.90
12276;DHT22;6200;48.144;11.424;2022-12-18T02:01:58;-2.60;99.90
12276;DHT22;6200;48.144;11.424;2022-12-18T02:04:26;-2.60;99.90
12276;DHT22;6200;48.144;11.424;2022-12-18T02:12:45;-2.70;99.90
12276;DHT22;6200;48.144;11.424;2022-12-18T02:15:29;-2.70;99.90
12276;DHT22;6200;48.144;11.424;2022-12-18T02:18:17;-2.70;99.90
12276;DHT22;6200;48.144;11.424;2022-12-18T02:20:47;-2.80;99.90
12276;DHT22;6200;48.144;11.424;2022-12-18T02:29:11;-2.80;99.90
12276;DHT22;6200;48.144;11.424;2022-12-18T02:31:42;-2.80;99.90
12276;DHT22;6200;48.144;11.424;2022-12-18T02:34:09;-2.80;99.90
12276;DHT22;6200;48.144;11.424;2022-12-18T02:36:36;-2.80;99.90
12276;DHT22;6200;48.144;11.424;2022-12-18T02:39:05;-2.70;99.90
12276;DHT22;6200;48.144;11.424;2022-12-18T02:41:32;-2.70;99.90
12276;DHT22;6200;48.144;11.424;2022-12-18T02:44:06;-2.70;99.90
12276;DHT22;6200;48.144;11.424;2022-12-18T02:46:41;-2.70;99.90
12276;DHT22;6200;48.144;11.424;2022-12-18T02:51:52;-2.70;99.90
12276;DHT22;6200;48.144;11.424;2022-12-18T02:57:01;-2.70;99.90
12276;DHT22;6200;48.144;11.424;2022-12-18T02:59:48;-2.40;99.90
12276;DHT22;6200;48.144;11.424;2022-12-18T03:02:32;-2.80;99.90
12276;DHT22;6200;48.144;11.424;2022-12-18T03:05:07;-2.80;99.90
12276;DHT22;6200;48.144;11.424;2022-12-18T03:10:32;-2.80;99.90
12276;DHT22;6200;48.144;11.424;2022-12-18T03:13:20;-2.80;99.90
12276;DHT22;6200;48.144;11.424;2022-12-18T03:15:51;-2.80;99.90
12276;DHT22;6200;48.144;11.424;2022-12-18T03:18:43;-2.80;99.90
12276;DHT22;6200;48.144;11.424;2022-12-18T03:21:10;-2.90;99.90
12276;DHT22;6200;48.144;11.424;2022-12-18T03:23:40;-2.90;99.90
12276;DHT22;6200;48.144;11.424;2022-12-18T03:26:11;-2.80;99.90
12276;DHT22;6200;48.144;11.424;2022-12-18T03:28:45;-2.80;99.90
12276;DHT22;6200;48.144;11.424;2022-12-18T03:31:14;-2.90;99.90
12276;DHT22;6200;48.144;11.424;2022-12-18T03:33:51;-2.90;99.90
12276;DHT22;6200;48.144;11.424;2022-12-18T03:36:17;-2.90;99.90
12276;DHT22;6200;48.144;11.424;2022-12-18T03:38:43;-2.90;99.90
12276;DHT22;6200;48.144;11.424;2022-12-18T03:41:15;-2.80;99.90
12276;DHT22;6200;48.144;11.424;2022-12-18T03:43:52;-2.80;99.90
12276;DHT22;6200;48.144;11.424;2022-12-18T03:49:23;-2.80;99.90
12276;DHT22;6200;48.144;11.424;2022-12-18T03:52:13;-2.90;99.90
12276;DHT22;6200;48.144;11.424;2022-12-18T03:54:43;-2.90;99.90
12276;DHT22;6200;48.144;11.424;2022-12-18T03:57:14;-2.90;99.90
12276;DHT22;6200;48.144;11.424;2022-12-18T03:59:43;-2.90;99.90
12276;DHT22;6200;48.144;11.424;2022-12-18T04:02:10;-2.90;99.90
12276;DHT22;6200;48.144;11.424;2022-12-18T04:04:37;-2.80;99.90
12276;DHT22;6200;48.144;11.424;2022-12-18T04:07:04;-2.80;99.90
12276;DHT22;6200;48.144;11.424;2022-12-18T04:09:31;-2.80;99.90
12276;DHT22;6200;48.144;11.424;2022-12-18T04:11:58;-2.80;99.90
12276;DHT22;6200;48.144;11.424;2022-12-18T04:14:23;-2.80;99.90
12276;DHT22;6200;48.144;11.424;2022-12-18T04:16:49;-2.80;99.90
12276;DHT22;6200;48.144;11.424;2022-12-18T04:19:14;-2.80;99.90
12276;DHT22;6200;48.144;11.424;2022-12-18T04:21:40;-2.80;99.90
12276;DHT22;6200;48.144;11.424;2022-12-18T04:24:06;-2.80;99.90
12276;DHT22;6200;48.144;11.424;2022-12-18T04:26:31;-2.80;99.90
12276;DHT22;6200;48.144;11.424;2022-12-18T04:28:57;-2.80;99.90
12276;DHT22;6200;48.144;11.424;2022-12-18T04:31:22;-2.70;99.90
12276;DHT22;6200;48.144;11.424;2022-12-18T04:33:48;-2.80;99.90
12276;DHT22;6200;48.144;11.424;2022-12-18T04:36:13;-2.80;99.90
12276;DHT22;6200;48.144;11.424;2022-12-18T04:38:39;-2.80;99.90
12276;DHT22;6200;48.144;11.424;2022-12-18T04:41:05;-2.70;99.90
12276;DHT22;6200;48.144;11.424;2022-12-18T04:43:30;-2.70;99.90
12276;DHT22;6200;48.144;11.424;2022-12-18T04:46:05;-2.70;99.90
12276;DHT22;6200;48.144;11.424;2022-12-18T04:48:31;-2.70;99.90
12276;DHT22;6200;48.144;11.424;2022-12-18T04:50:57;-2.70;99.90
12276;DHT22;6200;48.144;11.424;2022-12-18T04:53:23;-2.60;99.90
12276;DHT22;6200;48.144;11.424;2022-12-18T04:55:48;-2.70;99.90
12276;DHT22;6200;48.144;11.424;2022-12-18T04:58:14;-2.80;99.90
12276;DHT22;6200;48.144;11.424;2022-12-18T05:00:40;-2.80;99.90
12276;DHT22;6200;48.144;11.424;2022-12-18T05:03:05;-2.70;99.90
12276;DHT22;6200;48.144;11.424;2022-12-18T05:05:31;-2.70;99.90
12276;DHT22;6200;48.144;11.424;2022-12-18T05:07:56;-2.70;99.90
12276;DHT22;6200;48.144;11.424;2022-12-18T05:10:22;-2.70;99.90
12276;DHT22;6200;48.144;11.424;2022-12-18T05:12:48;-2.70;99.90
12276;DHT22;6200;48.144;11.424;2022-12-18T05:15:32;-2.80;99.90
12276;DHT22;6200;48.144;11.424;2022-12-18T05:17:58;-2.80;99.90
12276;DHT22;6200;48.144;11.424;2022-12-18T05:20:24;-2.70;99.90
12276;DHT22;6200;48.144;11.424;2022-12-18T05:22:50;-2.70;99.90
12276;DHT22;6200;48.144;11.424;2022-12-18T05:25:16;-2.70;99.90
12276;DHT22;6200;48.144;11.424;2022-12-18T05:27:42;-2.70;99.90
12276;DHT22;6200;48.144;11.424;2022-12-18T05:30:09;-2.70;99.90
12276;DHT22;6200;48.144;11.424;2022-12-18T05:32:35;-2.70;99.90
12276;DHT22;6200;48.144;11.424;2022-12-18T05:35:01;-2.60;99.90
12276;DHT22;6200;48.144;11.424;2022-12-18T05:37:26;-2.60;99.90
12276;DHT22;6200;48.144;11.424;2022-12-18T05:39:52;-3.20;99.90
12276;DHT22;6200;48.144;11.424;2022-12-18T05:42:17;-2.60;99.90
12276;DHT22;6200;48.144;11.424;2022-12-18T05:44:43;-2.60;99.90
12276;DHT22;6200;48.144;11.424;2022-12-18T05:47:09;-2.70;99.90
12276;DHT22;6200;48.144;11.424;2022-12-18T05:49:34;-2.70;99.90
12276;DHT22;6200;48.144;11.424;2022-12-18T05:52:00;-2.70;99.90
12276;DHT22;6200;48.144;11.424;2022-12-18T05:54:29;-2.70;99.90
12276;DHT22;6200;48.144;11.424;2022-12-18T05:56:54;-2.70;99.90
12276;DHT22;6200;48.144;11.424;2022-12-18T05:59:20;-2.70;99.90
12276;DHT22;6200;48.144;11.424;2022-12-18T06:01:46;-2.70;99.90
12276;DHT22;6200;48.144;11.424;2022-12-18T06:04:12;-2.70;99.90
12276;DHT22;6200;48.144;11.424;2022-12-18T06:06:37;-2.60;99.90
12276;DHT22;6200;48.144;11.424;2022-12-18T06:09:03;-2.70;99.90
12276;DHT22;6200;48.144;11.424;2022-12-18T06:11:35;-2.70;99.90
12276;DHT22;6200;48.144;11.424;2022-12-18T06:14:03;-2.70;99.90
12276;DHT22;6200;48.144;11.424;2022-12-18T06:16:30;-2.70;99.90
12276;DHT22;6200;48.144;11.424;2022-12-18T06:19:00;-2.70;99.90
12276;DHT22;6200;48.144;11.424;2022-12-18T06:21:26;-2.80;99.90
12276;DHT22;6200;48.144;11.424;2022-12-18T06:23:52;-2.80;99.90
12276;DHT22;6200;48.144;11.424;2022-12-18T06:26:17;-2.90;99.90
12276;DHT22;6200;48.144;11.424;2022-12-18T06:28:43;-2.90;99.90
12276;DHT22;6200;48.144;11.424;2022-12-18T06:31:09;-2.90;99.90
12276;DHT22;6200;48.144;11.424;2022-12-18T06:33:35;-2.80;99.90
12276;DHT22;6200;48.144;11.424;2022-12-18T06:36:06;-2.80;99.90
12276;DHT22;6200;48.144;11.424;2022-12-18T06:38:33;-2.80;99.90
12276;DHT22;6200;48.144;11.424;2022-12-18T06:40:59;-2.90;99.90
12276;DHT22;6200;48.144;11.424;2022-12-18T06:43:25;-2.90;99.90
12276;DHT22;6200;48.144;11.424;2022-12-18T06:45:57;-2.80;99.90
12276;DHT22;6200;48.144;11.424;2022-12-18T06:48:22;-2.90;99.90
12276;DHT22;6200;48.144;11.424;2022-12-18T06:50:48;-2.90;99.90
12276;DHT22;6200;48.144;11.424;2022-12-18T06:53:13;-2.80;99.90
12276;DHT22;6200;48.144;11.424;2022-12-18T06:55:39;-2.80;99.90
12276;DHT22;6200;48.144;11.424;2022-12-18T06:58:05;-2.80;99.90
12276;DHT22;6200;48.144;11.424;2022-12-18T07:00:30;-2.80;99.90
12276;DHT22;6200;48.144;11.424;2022-12-18T07:02:56;-2.80;99.90
12276;DHT22;6200;48.144;11.424;2022-12-18T07:05:21;-2.80;99.90
12276;DHT22;6200;48.144;11.424;2022-12-18T07:07:47;-2.80;99.90
12276;DHT22;6200;48.144;11.424;2022-12-18T07:10:12;-2.80;99.90
12276;DHT22;6200;48.144;11.424;2022-12-18T07:12:38;-2.80;99.90
12276;DHT22;6200;48.144;11.424;2022-12-18T07:15:04;-2.80;99.90
12276;DHT22;6200;48.144;11.424;2022-12-18T07:17:29;-2.80;99.90
12276;DHT22;6200;48.144;11.424;2022-12-18T07:19:55;-2.80;99.90
12276;DHT22;6200;48.144;11.424;2022-12-18T07:22:21;-2.80;99.90
12276;DHT22;6200;48.144;11.424;2022-12-18T07:24:46;-2.70;99.90
12276;DHT22;6200;48.144;11.424;2022-12-18T07:27:12;-2.80;99.90
12276;DHT22;6200;48.144;11.424;2022-12-18T07:29:37;-1.50;99.90
12276;DHT22;6200;48.144;11.424;2022-12-18T07:32:03;-2.70;99.90
12276;DHT22;6200;48.144;11.424;2022-12-18T07:34:29;-2.80;99.90
12276;DHT22;6200;48.144;11.424;2022-12-18T07:36:54;-2.80;99.90
12276;DHT22;6200;48.144;11.424;2022-12-18T07:39:20;-2.80;99.90
12276;DHT22;6200;48.144;11.424;2022-12-18T07:41:45;-2.80;99.90
12276;DHT22;6200;48.144;11.424;2022-12-18T07:44:31;-2.80;99.90
12276;DHT22;6200;48.144;11.424;2022-12-18T07:46:56;-2.80;99.90
12276;DHT22;6200;48.144;11.424;2022-12-18T07:49:22;-2.80;99.90
12276;DHT22;6200;48.144;11.424;2022-12-18T07:51:47;-2.80;99.90
12276;DHT22;6200;48.144;11.424;2022-12-18T07:54:14;-2.80;99.90
12276;DHT22;6200;48.144;11.424;2022-12-18T07:56:40;-2.80;99.90
12276;DHT22;6200;48.144;11.424;2022-12-18T07:59:05;-2.80;99.90
12276;DHT22;6200;48.144;11.424;2022-12-18T08:01:31;-2.90;99.90
12276;DHT22;6200;48.144;11.424;2022-12-18T08:03:57;-2.80;99.90
12276;DHT22;6200;48.144;11.424;2022-12-18T08:06:23;-2.90;99.90
12276;DHT22;6200;48.144;11.424;2022-12-18T08:08:48;-2.90;99.90
12276;DHT22;6200;48.144;11.424;2022-12-18T08:11:15;-2.90;99.90
12276;DHT22;6200;48.144;11.424;2022-12-18T08:13:41;-2.90;99.90
12276;DHT22;6200;48.144;11.424;2022-12-18T08:16:07;-2.80;99.90
12276;DHT22;6200;48.144;11.424;2022-12-18T08:18:34;-2.90;99.90
12276;DHT22;6200;48.144;11.424;2022-12-18T08:21:13;-2.80;99.90
12276;DHT22;6200;48.144;11.424;2022-12-18T08:23:40;-2.80;99.90
12276;DHT22;6200;48.144;11.424;2022-12-18T08:26:06;-2.80;99.90
12276;DHT22;6200;48.144;11.424;2022-12-18T08:28:32;-2.90;99.90
12276;DHT22;6200;48.144;11.424;2022-12-18T08:30:57;-2.90;99.90
12276;DHT22;6200;48.144;11.424;2022-12-18T08:33:23;-2.90;99.90
12276;DHT22;6200;48.144;11.424;2022-12-18T08:35:48;-2.90;99.90
12276;DHT22;6200;48.144;11.424;2022-12-18T08:38:14;-2.90;99.90
12276;DHT22;6200;48.144;11.424;2022-12-18T08:40:39;-2.90;99.90
12276;DHT22;6200;48.144;11.424;2022-12-18T08:43:05;-2.90;99.90
12276;DHT22;6200;48.144;11.424;2022-12-18T08:45:49;-2.90;99.90
12276;DHT22;6200;48.144;11.424;2022-12-18T08:48:15;-2.90;99.90
12276;DHT22;6200;48.144;11.424;2022-12-18T08:50:40;-2.90;99.90
12276;DHT22;6200;48.144;11.424;2022-12-18T08:53:06;-2.90;99.90
12276;DHT22;6200;48.144;11.424;2022-12-18T08:55:31;-2.90;99.90
12276;DHT22;6200;48.144;11.424;2022-12-18T08:57:57;-2.90;99.90
12276;DHT22;6200;48.144;11.424;2022-12-18T09:00:22;-2.90;99.90
12276;DHT22;6200;48.144;11.424;2022-12-18T09:02:48;-2.80;99.90
12276;DHT22;6200;48.144;11.424;2022-12-18T09:05:14;-2.80;99.90
12276;DHT22;6200;48.144;11.424;2022-12-18T09:07:39;-2.80;99.90
12276;DHT22;6200;48.144;11.424;2022-12-18T09:10:05;-2.70;99.90
12276;DHT22;6200;48.144;11.424;2022-12-18T09:12:31;-2.70;99.90
12276;DHT22;6200;48.144;11.424;2022-12-18T09:14:57;-2.60;99.90
12276;DHT22;6200;48.144;11.424;2022-12-18T09:17:22;-2.70;99.90
12276;DHT22;6200;48.144;11.424;2022-12-18T09:19:48;-2.70;99.90
12276;DHT22;6200;48.144;11.424;2022-12-18T09:22:13;-2.60;99.90
12276;DHT22;6200;48.144;11.424;2022-12-18T09:24:39;-2.60;99.90
12276;DHT22;6200;48.144;11.424;2022-12-18T09:27:04;-2.60;99.90
12276;DHT22;6200;48.144;11.424;2022-12-18T09:29:30;-2.50;99.90
12276;DHT22;6200;48.144;11.424;2022-12-18T09:31:56;-2.60;99.90
12276;DHT22;6200;48.144;11.424;2022-12-18T09:34:21;-2.60;99.90
12276;DHT22;6200;48.144;11.424;2022-12-18T09:36:47;-2.60;99.90
12276;DHT22;6200;48.144;11.424;2022-12-18T09:39:13;-2.60;99.90
12276;DHT22;6200;48.144;11.424;2022-12-18T09:41:50;-2.60;99.90
12276;DHT22;6200;48.144;11.424;2022-12-18T09:44:36;-2.60;99.90
12276;DHT22;6200;48.144;11.424;2022-12-18T09:49:46;-2.60;99.90
12276;DHT22;6200;48.144;11.424;2022-12-18T09:54:51;-2.60;99.90
12276;DHT22;6200;48.144;11.424;2022-12-18T09:57:22;-2.80;99.90
12276;DHT22;6200;48.144;11.424;2022-12-18T09:59:57;-2.70;99.90
12276;DHT22;6200;48.144;11.424;2022-12-18T10:02:25;-2.70;99.90
12276;DHT22;6200;48.144;11.424;2022-12-18T10:05:04;-2.70;99.90
12276;DHT22;6200;48.144;11.424;2022-12-18T10:14:01;-2.80;99.90
12276;DHT22;6200;48.144;11.424;2022-12-18T10:16:17;-2.70;99.90
12276;DHT22;6200;48.144;11.424;2022-12-18T10:21:23;-2.70;99.90
12276;DHT22;6200;48.144;11.424;2022-12-18T10:26:18;-2.60;99.90
12276;DHT22;6200;48.144;11.424;2022-12-18T10:28:44;-2.60;99.90
12276;DHT22;6200;48.144;11.424;2022-12-18T10:31:19;-2.60;99.90
12276;DHT22;6200;48.144;11.424;2022-12-18T10:33:45;-2.60;99.90
12276;DHT22;6200;48.144;11.424;2022-12-18T10:36:11;-2.10;99.90
12276;DHT22;6200;48.144;11.424;2022-12-18T10:38:37;-2.60;99.90
12276;DHT22;6200;48.144;11.424;2022-12-18T10:41:25;-2.60;99.90
12276;DHT22;6200;48.144;11.424;2022-12-18T10:44:16;-2.60;99.90
12276;DHT22;6200;48.144;11.424;2022-12-18T10:46:44;-2.60;99.90
12276;DHT22;6200;48.144;11.424;2022-12-18T10:49:36;-2.50;99.90
12276;DHT22;6200;48.144;11.424;2022-12-18T10:52:13;-2.60;99.90
12276;DHT22;6200;48.144;11.424;2022-12-18T10:54:39;-2.70;99.90
12276;DHT22;6200;48.144;11.424;2022-12-18T11:00:23;-2.70;99.90
12276;DHT22;6200;48.144;11.424;2022-12-18T11:02:47;-2.60;99.90
12276;DHT22;6200;48.144;11.424;2022-12-18T11:05:30;-2.60;99.90
12276;DHT22;6200;48.144;11.424;2022-12-18T11:07:57;-2.60;99.90
12276;DHT22;6200;48.144;11.424;2022-12-18T11:10:32;-2.70;99.90
12276;DHT22;6200;48.144;11.424;2022-12-18T11:13:19;-2.70;99.90
12276;DHT22;6200;48.144;11.424;2022-12-18T11:15:46;-2.60;99.90
12276;DHT22;6200;48.144;11.424;2022-12-18T11:18:38;-2.70;99.90
12276;DHT22;6200;48.144;11.424;2022-12-18T11:21:09;-2.70;99.90
12276;DHT22;6200;48.144;11.424;2022-12-18T11:23:36;-2.80;99.90
12276;DHT22;6200;48.144;11.424;2022-12-18T11:26:04;-2.70;99.90
12276;DHT22;6200;48.144;11.424;2022-12-18T11:28:40;-2.70;99.90
12276;DHT22;6200;48.144;11.424;2022-12-18T11:31:27;-2.60;99.90
12276;DHT22;6200;48.144;11.424;2022-12-18T11:34:00;-2.60;99.90
12276;DHT22;6200;48.144;11.424;2022-12-18T11:36:36;-2.60;99.90
12276;DHT22;6200;48.144;11.424;2022-12-18T11:39:17;-2.50;99.90
12276;DHT22;6200;48.144;11.424;2022-12-18T11:42:20;-2.50;99.90
12276;DHT22;6200;48.144;11.424;2022-12-18T11:44:50;-2.50;99.90
12276;DHT22;6200;48.144;11.424;2022-12-18T11:50:02;-2.50;99.90
12276;DHT22;6200;48.144;11.424;2022-12-18T11:52:37;-2.50;99.90
12276;DHT22;6200;48.144;11.424;2022-12-18T12:00:47;-2.50;99.90
12276;DHT22;6200;48.144;11.424;2022-12-18T12:03:39;-2.50;99.90
12276;DHT22;6200;48.144;11.424;2022-12-18T12:06:21;-2.50;99.90
12276;DHT22;6200;48.144;11.424;2022-12-18T12:11:53;-2.40;99.90
12276;DHT22;6200;48.144;11.424;2022-12-18T12:14:45;-2.40;99.90
12276;DHT22;6200;48.144;11.424;2022-12-18T12:20:26;-2.30;99.90
12276;DHT22;6200;48.144;11.424;2022-12-18T12:25:41;-2.30;99.90
12276;DHT22;6200;48.144;11.424;2022-12-18T12:31:34;-2.30;99.90
12276;DHT22;6200;48.144;11.424;2022-12-18T12:34:21;-2.20;99.90
12276;DHT22;6200;48.144;11.424;2022-12-18T12:39:51;-2.30;99.90
12276;DHT22;6200;48.144;11.424;2022-12-18T12:42:40;-2.30;99.90
12276;DHT22;6200;48.144;11.424;2022-12-18T12:45:34;-2.30;99.90
12276;DHT22;6200;48.144;11.424;2022-12-18T12:48:04;-2.20;99.90
12276;DHT22;6200;48.144;11.424;2022-12-18T12:50:33;-2.30;99.90
12276;DHT22;6200;48.144;11.424;2022-12-18T12:53:01;-2.10;99.90
12276;DHT22;6200;48.144;11.424;2022-12-18T12:55:31;-2.20;99.90
12276;DHT22;6200;48.144;11.424;2022-12-18T12:58:18;-2.20;99.90
12276;DHT22;6200;48.144;11.424;2022-12-18T13:00:52;-2.20;99.90
12276;DHT22;6200;48.144;11.424;2022-12-18T13:03:31;-2.20;99.90
12276;DHT22;6200;48.144;11.424;2022-12-18T13:06:08;-2.20;99.90
12276;DHT22;6200;48.144;11.424;2022-12-18T13:08:54;-2.20;99.90
12276;DHT22;6200;48.144;11.424;2022-12-18T13:11:43;-2.20;99.90
12276;DHT22;6200;48.144;11.424;2022-12-18T13:14:36;-2.10;99.90
12276;DHT22;6200;48.144;11.424;2022-12-18T13:20:04;-2.20;99.90
12276;DHT22;6200;48.144;11.424;2022-12-18T13:22:38;-2.20;99.90
12276;DHT22;6200;48.144;11.424;2022-12-18T13:25:31;-2.20;99.90
12276;DHT22;6200;48.144;11.424;2022-12-18T13:38:33;-2.10;99.90
12276;DHT22;6200;48.144;11.424;2022-12-18T13:43:46;-2.20;99.90
12276;DHT22;6200;48.144;11.424;2022-12-18T13:46:29;-2.20;99.90
12276;DHT22;6200;48.144;11.424;2022-12-18T13:51:48;-2.30;99.90
12276;DHT22;6200;48.144;11.424;2022-12-18T13:54:40;-2.30;99.90
12276;DHT22;6200;48.144;11.424;2022-12-18T13:57:29;-2.40;99.90
12276;DHT22;6200;48.144;11.424;2022-12-18T13:59:56;-2.40;99.90
12276;DHT22;6200;48.144;11.424;2022-12-18T14:02:23;-2.40;99.90
12276;DHT22;6200;48.144;11.424;2022-12-18T14:04:50;-2.50;99.90
12276;DHT22;6200;48.144;11.424;2022-12-18T14:07:23;-2.50;99.90
12276;DHT22;6200;48.144;11.424;2022-12-18T14:09:54;-2.60;99.90
12276;DHT22;6200;48.144;11.424;2022-12-18T14:12:32;-2.60;99.90
12276;DHT22;6200;48.144;11.424;2022-12-18T14:17:59;-2.60;99.90
12276;DHT22;6200;48.144;11.424;2022-12-18T14:20:26;-2.60;99.90
12276;DHT22;6200;48.144;11.424;2022-12-18T14:22:52;-2.60;99.90
12276;DHT22;6200;48.144;11.424;2022-12-18T14:25:23;-2.60;99.90
12276;DHT22;6200;48.144;11.424;2022-12-18T14:30:42;-2.70;99.90
12276;DHT22;6200;48.144;11.424;2022-12-18T14:35:35;-2.70;99.90
12276;DHT22;6200;48.144;11.424;2022-12-18T14:40:42;-2.70;99.90
12276;DHT22;6200;48.144;11.424;2022-12-18T14:43:11;-2.70;99.90
12276;DHT22;6200;48.144;11.424;2022-12-18T14:45:39;-2.80;99.90
12276;DHT22;6200;48.144;11.424;2022-12-18T14:48:21;-2.80;99.90
12276;DHT22;6200;48.144;11.424;2022-12-18T14:53:39;-2.80;99.90
12276;DHT22;6200;48.144;11.424;2022-12-18T14:58:56;-2.80;99.90
12276;DHT22;6200;48.144;11.424;2022-12-18T15:01:35;-2.80;99.90
12276;DHT22;6200;48.144;11.424;2022-12-18T15:04:03;-2.80;99.90
12276;DHT22;6200;48.144;11.424;2022-12-18T15:06:32;-2.80;99.90
12276;DHT22;6200;48.144;11.424;2022-12-18T15:09:00;-2.80;99.90
12276;DHT22;6200;48.144;11.424;2022-12-18T15:11:27;-2.90;99.90
12276;DHT22;6200;48.144;11.424;2022-12-18T15:13:53;-2.80;99.90
12276;DHT22;6200;48.144;11.424;2022-12-18T15:16:19;-2.80;99.90
12276;DHT22;6200;48.144;11.424;2022-12-18T15:18:45;-2.90;99.90
12276;DHT22;6200;48.144;11.424;2022-12-18T15:21:18;-2.90;99.90
12276;DHT22;6200;48.144;11.424;2022-12-18T15:26:11;-3.00;99.90
12276;DHT22;6200;48.144;11.424;2022-12-18T15:28:49;-2.90;99.90
12276;DHT22;6200;48.144;11.424;2022-12-18T15:36:18;-2.90;99.90
12276;DHT22;6200;48.144;11.424;2022-12-18T15:38:48;-2.90;99.90
12276;DHT22;6200;48.144;11.424;2022-12-18T15:41:16;-2.90;99.90
12276;DHT22;6200;48.144;11.424;2022-12-18T15:43:42;-2.90;99.90
12276;DHT22;6200;48.144;11.424;2022-12-18T15:46:16;-2.90;99.90
12276;DHT22;6200;48.144;11.424;2022-12-18T15:48:47;-2.90;99.90
12276;DHT22;6200;48.144;11.424;2022-12-18T15:54:00;-3.00;99.90
12276;DHT22;6200;48.144;11.424;2022-12-18T15:56:26;-3.00;99.90
12276;DHT22;6200;48.144;11.424;2022-12-18T15:59:15;-3.00;99.90
12276;DHT22;6200;48.144;11.424;2022-12-18T16:01:43;-2.90;99.90
12276;DHT22;6200;48.144;11.424;2022-12-18T16:04:12;-2.90;99.90
12276;DHT22;6200;48.144;11.424;2022-12-18T16:06:38;-2.90;99.90
12276;DHT22;6200;48.144;11.424;2022-12-18T16:09:04;-3.00;99.90
12276;DHT22;6200;48.144;11.424;2022-12-18T16:11:32;-3.00;99.90
12276;DHT22;6200;48.144;11.424;2022-12-18T16:16:40;-3.00;99.90
12276;DHT22;6200;48.144;11.424;2022-12-18T16:19:07;-3.00;99.90
12276;DHT22;6200;48.144;11.424;2022-12-18T16:21:32;-3.00;99.90
12276;DHT22;6200;48.144;11.424;2022-12-18T16:23:58;-3.00;99.90
12276;DHT22;6200;48.144;11.424;2022-12-18T16:26:23;-3.00;99.90
12276;DHT22;6200;48.144;11.424;2022-12-18T16:28:49;-3.00;99.90
12276;DHT22;6200;48.144;11.424;2022-12-18T16:31:14;-3.10;99.90
12276;DHT22;6200;48.144;11.424;2022-12-18T16:33:40;-3.10;99.90
12276;DHT22;6200;48.144;11.424;2022-12-18T16:36:06;-3.10;99.90
12276;DHT22;6200;48.144;11.424;2022-12-18T16:38:31;-3.10;99.90
12276;DHT22;6200;48.144;11.424;2022-12-18T16:40:57;-3.20;99.90
12276;DHT22;6200;48.144;11.424;2022-12-18T16:43:41;-3.20;99.90
12276;DHT22;6200;48.144;11.424;2022-12-18T16:46:07;-3.30;99.90
12276;DHT22;6200;48.144;11.424;2022-12-18T16:48:32;-3.30;99.90
12276;DHT22;6200;48.144;11.424;2022-12-18T16:51:03;-3.20;99.90
12276;DHT22;6200;48.144;11.424;2022-12-18T16:53:28;-1.80;99.90
12276;DHT22;6200;48.144;11.424;2022-12-18T16:55:55;-3.20;99.90
12276;DHT22;6200;48.144;11.424;2022-12-18T16:58:20;-3.20;99.90
12276;DHT22;6200;48.144;11.424;2022-12-18T17:00:46;-3.20;99.90
12276;DHT22;6200;48.144;11.424;2022-12-18T17:03:12;-4.60;99.90
12276;DHT22;6200;48.144;11.424;2022-12-18T17:05:38;-3.30;99.90
12276;DHT22;6200;48.144;11.424;2022-12-18T17:08:03;-3.30;99.90
12276;DHT22;6200;48.144;11.424;2022-12-18T17:10:29;-3.30;99.90
12276;DHT22;6200;48.144;11.424;2022-12-18T17:12:55;-3.20;99.90
12276;DHT22;6200;48.144;11.424;2022-12-18T17:15:20;-3.20;99.90
12276;DHT22;6200;48.144;11.424;2022-12-18T17:17:46;-3.30;99.90
12276;DHT22;6200;48.144;11.424;2022-12-18T17:20:11;-3.30;99.90
12276;DHT22;6200;48.144;11.424;2022-12-18T17:22:37;-3.20;99.90
12276;DHT22;6200;48.144;11.424;2022-12-18T17:25:03;-3.20;99.90
12276;DHT22;6200;48.144;11.424;2022-12-18T17:27:28;-3.30;99.90
12276;DHT22;6200;48.144;11.424;2022-12-18T17:29:54;-3.20;99.90
12276;DHT22;6200;48.144;11.424;2022-12-18T17:32:19;-3.30;99.90
12276;DHT22;6200;48.144;11.424;2022-12-18T17:34:45;-3.30;99.90
12276;DHT22;6200;48.144;11.424;2022-12-18T17:37:11;-3.30;99.90
12276;DHT22;6200;48.144;11.424;2022-12-18T17:39:37;-3.30;99.90
12276;DHT22;6200;48.144;11.424;2022-12-18T17:42:02;-3.30;99.90